Terminal Aerodrome Forecast
Issued by NWS Omaha/Valley, NE

Home | Current Version | Previous Version | Graphics & Text | Print | Product List | Glossary On
Versions: 1 2 3 4 5 6 7 8 9 10 11 12 13 14 15 16 17 18 19 20 21 22
000
FTUS43 KOAX 210522
TAFOFK
TAF
KOFK 210522Z 2106/2206 04007KT P6SM BKN090
     FM211000 03008KT P6SM VCSH SCT040 OVC080
     FM211500 04011KT P6SM VCSH OVC015
     FM211700 04011KT P6SM VCSH OVC040
     FM220200 06007KT P6SM BKN120=

USA.gov is the U.S. government's official web portal to all federal, state and local government web resources and services.